sensor_id;sensor_type;location;lat;lon;timestamp;temperature;humidity
11087;DHT22;5597;47.588;9.642;2022-12-07T00:01:45;3.00;99.90
11087;DHT22;5597;47.588;9.642;2022-12-07T00:04:13;3.00;99.90
11087;DHT22;5597;47.588;9.642;2022-12-07T00:06:41;3.10;99.90
11087;DHT22;5597;47.588;9.642;2022-12-07T00:09:10;3.10;99.90
11087;DHT22;5597;47.588;9.642;2022-12-07T00:11:36;3.10;99.90
11087;DHT22;5597;47.588;9.642;2022-12-07T00:14:05;3.10;99.90
11087;DHT22;5597;47.588;9.642;2022-12-07T00:16:33;3.00;99.90
11087;DHT22;5597;47.588;9.642;2022-12-07T00:18:59;3.10;99.90
11087;DHT22;5597;47.588;9.642;2022-12-07T00:21:29;3.10;99.90
11087;DHT22;5597;47.588;9.642;2022-12-07T00:23:56;3.10;99.90
11087;DHT22;5597;47.588;9.642;2022-12-07T00:26:27;3.10;99.90
11087;DHT22;5597;47.588;9.642;2022-12-07T00:28:55;3.10;99.90
11087;DHT22;5597;47.588;9.642;2022-12-07T00:31:23;3.10;99.90
11087;DHT22;5597;47.588;9.642;2022-12-07T00:33:50;3.00;99.90
11087;DHT22;5597;47.588;9.642;2022-12-07T00:36:18;3.10;99.90
11087;DHT22;5597;47.588;9.642;2022-12-07T00:38:44;3.10;99.90
11087;DHT22;5597;47.588;9.642;2022-12-07T00:41:13;3.10;99.90
11087;DHT22;5597;47.588;9.642;2022-12-07T00:43:40;3.10;99.90
11087;DHT22;5597;47.588;9.642;2022-12-07T00:46:06;3.10;99.90
11087;DHT22;5597;47.588;9.642;2022-12-07T00:48:31;3.10;99.90
11087;DHT22;5597;47.588;9.642;2022-12-07T00:50:57;3.10;99.90
11087;DHT22;5597;47.588;9.642;2022-12-07T00:53:23;3.00;99.90
11087;DHT22;5597;47.588;9.642;2022-12-07T00:55:49;3.00;99.90
11087;DHT22;5597;47.588;9.642;2022-12-07T00:58:15;3.00;99.90
11087;DHT22;5597;47.588;9.642;2022-12-07T01:00:42;3.00;99.90
11087;DHT22;5597;47.588;9.642;2022-12-07T01:03:10;3.00;99.90
11087;DHT22;5597;47.588;9.642;2022-12-07T01:05:36;3.00;99.90
11087;DHT22;5597;47.588;9.642;2022-12-07T01:08:02;3.00;99.90
11087;DHT22;5597;47.588;9.642;2022-12-07T01:10:28;3.00;99.90
11087;DHT22;5597;47.588;9.642;2022-12-07T01:12:56;3.00;99.90
11087;DHT22;5597;47.588;9.642;2022-12-07T01:15:22;3.00;99.90
11087;DHT22;5597;47.588;9.642;2022-12-07T01:17:47;3.00;99.90
11087;DHT22;5597;47.588;9.642;2022-12-07T01:20:13;3.00;99.90
11087;DHT22;5597;47.588;9.642;2022-12-07T01:22:42;3.00;99.90
11087;DHT22;5597;47.588;9.642;2022-12-07T01:25:09;3.00;99.90
11087;DHT22;5597;47.588;9.642;2022-12-07T01:27:36;3.00;99.90
11087;DHT22;5597;47.588;9.642;2022-12-07T01:30:04;3.00;99.90
11087;DHT22;5597;47.588;9.642;2022-12-07T01:32:30;3.00;99.90
11087;DHT22;5597;47.588;9.642;2022-12-07T01:34:55;3.00;99.90
11087;DHT22;5597;47.588;9.642;2022-12-07T01:37:21;3.00;99.90
11087;DHT22;5597;47.588;9.642;2022-12-07T01:39:51;3.00;99.90
11087;DHT22;5597;47.588;9.642;2022-12-07T01:42:16;3.00;99.90
11087;DHT22;5597;47.588;9.642;2022-12-07T01:47:52;3.00;99.90
11087;DHT22;5597;47.588;9.642;2022-12-07T01:50:20;3.00;99.90
11087;DHT22;5597;47.588;9.642;2022-12-07T01:52:48;3.00;99.90
11087;DHT22;5597;47.588;9.642;2022-12-07T01:55:15;3.00;99.90
11087;DHT22;5597;47.588;9.642;2022-12-07T01:57:45;3.00;99.90
11087;DHT22;5597;47.588;9.642;2022-12-07T02:00:13;3.00;99.90
11087;DHT22;5597;47.588;9.642;2022-12-07T02:05:45;3.00;99.90
11087;DHT22;5597;47.588;9.642;2022-12-07T02:08:12;2.90;99.90
11087;DHT22;5597;47.588;9.642;2022-12-07T02:10:38;2.90;99.90
11087;DHT22;5597;47.588;9.642;2022-12-07T02:13:14;2.90;99.90
11087;DHT22;5597;47.588;9.642;2022-12-07T02:18:56;2.90;99.90
11087;DHT22;5597;47.588;9.642;2022-12-07T02:24:40;2.80;99.90
11087;DHT22;5597;47.588;9.642;2022-12-07T02:30:04;2.80;99.90
11087;DHT22;5597;47.588;9.642;2022-12-07T02:33:03;2.80;99.90
11087;DHT22;5597;47.588;9.642;2022-12-07T02:35:34;2.80;99.90
11087;DHT22;5597;47.588;9.642;2022-12-07T02:40:57;2.80;99.90
11087;DHT22;5597;47.588;9.642;2022-12-07T02:43:33;2.80;99.90
11087;DHT22;5597;47.588;9.642;2022-12-07T02:46:08;2.80;99.90
11087;DHT22;5597;47.588;9.642;2022-12-07T02:48:38;2.80;99.90
11087;DHT22;5597;47.588;9.642;2022-12-07T02:51:05;2.80;99.90
11087;DHT22;5597;47.588;9.642;2022-12-07T02:53:35;2.80;99.90
11087;DHT22;5597;47.588;9.642;2022-12-07T03:08:02;2.70;99.90
11087;DHT22;5597;47.588;9.642;2022-12-07T03:16:14;2.80;99.90
11087;DHT22;5597;47.588;9.642;2022-12-07T03:19:15;2.80;99.90
11087;DHT22;5597;47.588;9.642;2022-12-07T03:22:00;2.80;99.90
11087;DHT22;5597;47.588;9.642;2022-12-07T03:24:31;2.80;99.90
11087;DHT22;5597;47.588;9.642;2022-12-07T03:27:04;2.80;99.90
11087;DHT22;5597;47.588;9.642;2022-12-07T03:29:35;2.80;99.90
11087;DHT22;5597;47.588;9.642;2022-12-07T03:32:08;2.80;99.90
11087;DHT22;5597;47.588;9.642;2022-12-07T03:35:29;2.80;99.90
11087;DHT22;5597;47.588;9.642;2022-12-07T03:40:35;2.80;99.90
11087;DHT22;5597;47.588;9.642;2022-12-07T03:43:03;2.80;99.90
11087;DHT22;5597;47.588;9.642;2022-12-07T03:50:44;2.70;99.90
11087;DHT22;5597;47.588;9.642;2022-12-07T03:53:19;2.80;99.90
11087;DHT22;5597;47.588;9.642;2022-12-07T03:55:46;2.70;99.90
11087;DHT22;5597;47.588;9.642;2022-12-07T03:58:16;2.70;99.90
11087;DHT22;5597;47.588;9.642;2022-12-07T04:00:43;2.70;99.90
11087;DHT22;5597;47.588;9.642;2022-12-07T04:03:10;2.70;99.90
11087;DHT22;5597;47.588;9.642;2022-12-07T04:05:36;2.70;99.90
11087;DHT22;5597;47.588;9.642;2022-12-07T04:08:02;2.70;99.90
11087;DHT22;5597;47.588;9.642;2022-12-07T04:10:28;2.70;99.90
11087;DHT22;5597;47.588;9.642;2022-12-07T04:12:53;2.60;99.90
11087;DHT22;5597;47.588;9.642;2022-12-07T04:15:19;2.60;99.90
11087;DHT22;5597;47.588;9.642;2022-12-07T04:17:45;2.60;99.90
11087;DHT22;5597;47.588;9.642;2022-12-07T04:20:11;2.60;99.90
11087;DHT22;5597;47.588;9.642;2022-12-07T04:22:37;2.60;99.90
11087;DHT22;5597;47.588;9.642;2022-12-07T04:25:03;2.60;99.90
11087;DHT22;5597;47.588;9.642;2022-12-07T04:27:29;2.60;99.90
11087;DHT22;5597;47.588;9.642;2022-12-07T04:29:54;2.60;99.90
11087;DHT22;5597;47.588;9.642;2022-12-07T04:32:21;2.60;99.90
11087;DHT22;5597;47.588;9.642;2022-12-07T04:34:47;2.60;99.90
11087;DHT22;5597;47.588;9.642;2022-12-07T04:37:12;2.60;99.90
11087;DHT22;5597;47.588;9.642;2022-12-07T04:39:38;2.50;99.90
11087;DHT22;5597;47.588;9.642;2022-12-07T04:42:04;2.50;99.90
11087;DHT22;5597;47.588;9.642;2022-12-07T04:44:30;2.50;99.90
11087;DHT22;5597;47.588;9.642;2022-12-07T04:46:56;2.50;99.90
11087;DHT22;5597;47.588;9.642;2022-12-07T04:49:22;2.50;99.90
11087;DHT22;5597;47.588;9.642;2022-12-07T04:51:48;2.50;99.90
11087;DHT22;5597;47.588;9.642;2022-12-07T04:54:15;2.50;99.90
11087;DHT22;5597;47.588;9.642;2022-12-07T04:56:41;2.50;99.90
11087;DHT22;5597;47.588;9.642;2022-12-07T04:59:07;2.50;99.90
11087;DHT22;5597;47.588;9.642;2022-12-07T05:01:33;2.50;99.90
11087;DHT22;5597;47.588;9.642;2022-12-07T05:03:59;2.50;99.90
11087;DHT22;5597;47.588;9.642;2022-12-07T05:06:25;2.50;99.90
11087;DHT22;5597;47.588;9.642;2022-12-07T05:08:51;2.50;99.90
11087;DHT22;5597;47.588;9.642;2022-12-07T05:11:17;2.50;99.90
11087;DHT22;5597;47.588;9.642;2022-12-07T05:14:02;2.50;99.90
11087;DHT22;5597;47.588;9.642;2022-12-07T05:16:28;2.50;99.90
11087;DHT22;5597;47.588;9.642;2022-12-07T05:18:54;2.50;99.90
11087;DHT22;5597;47.588;9.642;2022-12-07T05:21:20;2.50;99.90
11087;DHT22;5597;47.588;9.642;2022-12-07T05:23:45;2.50;99.90
11087;DHT22;5597;47.588;9.642;2022-12-07T05:26:11;2.50;99.90
11087;DHT22;5597;47.588;9.642;2022-12-07T05:28:36;2.50;99.90
11087;DHT22;5597;47.588;9.642;2022-12-07T05:31:02;2.50;99.90
11087;DHT22;5597;47.588;9.642;2022-12-07T05:33:28;2.50;99.90
11087;DHT22;5597;47.588;9.642;2022-12-07T05:35:54;2.40;99.90
11087;DHT22;5597;47.588;9.642;2022-12-07T05:38:19;2.40;99.90
11087;DHT22;5597;47.588;9.642;2022-12-07T05:40:45;2.40;99.90
11087;DHT22;5597;47.588;9.642;2022-12-07T05:43:10;2.40;99.90
11087;DHT22;5597;47.588;9.642;2022-12-07T05:45:36;2.40;99.90
11087;DHT22;5597;47.588;9.642;2022-12-07T05:48:01;2.40;99.90
11087;DHT22;5597;47.588;9.642;2022-12-07T05:50:27;2.50;99.90
11087;DHT22;5597;47.588;9.642;2022-12-07T05:52:53;2.40;99.90
11087;DHT22;5597;47.588;9.642;2022-12-07T05:55:19;2.50;99.90
11087;DHT22;5597;47.588;9.642;2022-12-07T05:57:45;2.50;99.90
11087;DHT22;5597;47.588;9.642;2022-12-07T06:00:31;2.50;99.90
11087;DHT22;5597;47.588;9.642;2022-12-07T06:02:57;2.40;99.90
11087;DHT22;5597;47.588;9.642;2022-12-07T06:05:23;2.40;99.90
11087;DHT22;5597;47.588;9.642;2022-12-07T06:07:48;2.40;99.90
11087;DHT22;5597;47.588;9.642;2022-12-07T06:10:14;2.40;99.90
11087;DHT22;5597;47.588;9.642;2022-12-07T06:12:40;2.40;99.90
11087;DHT22;5597;47.588;9.642;2022-12-07T06:15:08;2.40;99.90
11087;DHT22;5597;47.588;9.642;2022-12-07T06:17:35;2.40;99.90
11087;DHT22;5597;47.588;9.642;2022-12-07T06:20:00;2.40;99.90
11087;DHT22;5597;47.588;9.642;2022-12-07T06:22:26;2.50;99.90
11087;DHT22;5597;47.588;9.642;2022-12-07T06:24:52;2.50;99.90
11087;DHT22;5597;47.588;9.642;2022-12-07T06:27:17;2.50;99.90
11087;DHT22;5597;47.588;9.642;2022-12-07T06:29:43;2.50;99.90
11087;DHT22;5597;47.588;9.642;2022-12-07T06:32:09;2.50;99.90
11087;DHT22;5597;47.588;9.642;2022-12-07T06:34:34;2.50;99.90
11087;DHT22;5597;47.588;9.642;2022-12-07T06:37:00;2.60;99.90
11087;DHT22;5597;47.588;9.642;2022-12-07T06:39:27;2.50;99.90
11087;DHT22;5597;47.588;9.642;2022-12-07T06:41:53;2.50;99.90
11087;DHT22;5597;47.588;9.642;2022-12-07T06:44:20;2.60;99.90
11087;DHT22;5597;47.588;9.642;2022-12-07T06:46:46;2.50;99.90
11087;DHT22;5597;47.588;9.642;2022-12-07T06:49:11;2.50;99.90
11087;DHT22;5597;47.588;9.642;2022-12-07T06:51:37;2.50;99.90
11087;DHT22;5597;47.588;9.642;2022-12-07T06:54:07;2.50;99.90
11087;DHT22;5597;47.588;9.642;2022-12-07T06:56:33;2.50;99.90
11087;DHT22;5597;47.588;9.642;2022-12-07T06:58:58;2.40;99.90
11087;DHT22;5597;47.588;9.642;2022-12-07T07:01:24;2.40;99.90
11087;DHT22;5597;47.588;9.642;2022-12-07T07:03:49;2.40;99.90
11087;DHT22;5597;47.588;9.642;2022-12-07T07:06:15;2.30;99.90
11087;DHT22;5597;47.588;9.642;2022-12-07T07:08:43;2.30;99.90
11087;DHT22;5597;47.588;9.642;2022-12-07T07:11:09;2.30;99.90
11087;DHT22;5597;47.588;9.642;2022-12-07T07:13:35;2.30;99.90
11087;DHT22;5597;47.588;9.642;2022-12-07T07:16:01;2.40;99.90
11087;DHT22;5597;47.588;9.642;2022-12-07T07:18:27;2.40;99.90
11087;DHT22;5597;47.588;9.642;2022-12-07T07:20:53;2.30;99.90
11087;DHT22;5597;47.588;9.642;2022-12-07T07:23:20;2.40;99.90
11087;DHT22;5597;47.588;9.642;2022-12-07T07:25:46;2.40;99.90
11087;DHT22;5597;47.588;9.642;2022-12-07T07:28:11;2.40;99.90
11087;DHT22;5597;47.588;9.642;2022-12-07T07:30:37;2.40;99.90
11087;DHT22;5597;47.588;9.642;2022-12-07T07:33:04;2.40;99.90
11087;DHT22;5597;47.588;9.642;2022-12-07T07:35:31;2.30;99.90
11087;DHT22;5597;47.588;9.642;2022-12-07T07:37:57;2.30;99.90
11087;DHT22;5597;47.588;9.642;2022-12-07T07:40:24;2.30;99.90
11087;DHT22;5597;47.588;9.642;2022-12-07T07:42:50;2.30;99.90
11087;DHT22;5597;47.588;9.642;2022-12-07T07:45:17;2.30;99.90
11087;DHT22;5597;47.588;9.642;2022-12-07T07:47:43;2.30;99.90
11087;DHT22;5597;47.588;9.642;2022-12-07T07:50:09;2.30;99.90
11087;DHT22;5597;47.588;9.642;2022-12-07T07:52:34;2.30;99.90
11087;DHT22;5597;47.588;9.642;2022-12-07T07:55:00;2.30;99.90
11087;DHT22;5597;47.588;9.642;2022-12-07T07:57:25;2.30;99.90
11087;DHT22;5597;47.588;9.642;2022-12-07T07:59:52;2.40;99.90
11087;DHT22;5597;47.588;9.642;2022-12-07T08:02:19;2.30;99.90
11087;DHT22;5597;47.588;9.642;2022-12-07T08:04:46;2.30;99.90
11087;DHT22;5597;47.588;9.642;2022-12-07T08:07:11;2.30;99.90
11087;DHT22;5597;47.588;9.642;2022-12-07T08:09:38;2.30;99.90
11087;DHT22;5597;47.588;9.642;2022-12-07T08:12:04;2.40;99.90
11087;DHT22;5597;47.588;9.642;2022-12-07T08:14:29;2.30;99.90
11087;DHT22;5597;47.588;9.642;2022-12-07T08:16:55;2.30;99.90
11087;DHT22;5597;47.588;9.642;2022-12-07T08:19:21;2.40;99.90
11087;DHT22;5597;47.588;9.642;2022-12-07T08:21:47;2.40;99.90
11087;DHT22;5597;47.588;9.642;2022-12-07T08:24:13;2.40;99.90
11087;DHT22;5597;47.588;9.642;2022-12-07T08:26:39;2.40;99.90
11087;DHT22;5597;47.588;9.642;2022-12-07T08:29:05;2.40;99.90
11087;DHT22;5597;47.588;9.642;2022-12-07T08:31:30;2.40;99.90
11087;DHT22;5597;47.588;9.642;2022-12-07T08:33:56;2.40;99.90
11087;DHT22;5597;47.588;9.642;2022-12-07T08:36:22;2.40;99.90
11087;DHT22;5597;47.588;9.642;2022-12-07T08:38:48;2.40;99.90
11087;DHT22;5597;47.588;9.642;2022-12-07T08:41:14;2.40;99.90
11087;DHT22;5597;47.588;9.642;2022-12-07T08:43:40;2.40;99.90
11087;DHT22;5597;47.588;9.642;2022-12-07T08:46:18;2.40;99.90
11087;DHT22;5597;47.588;9.642;2022-12-07T08:48:54;2.40;99.90
11087;DHT22;5597;47.588;9.642;2022-12-07T08:51:22;2.40;99.90
11087;DHT22;5597;47.588;9.642;2022-12-07T08:53:49;2.40;99.90
11087;DHT22;5597;47.588;9.642;2022-12-07T08:56:16;2.40;99.90
11087;DHT22;5597;47.588;9.642;2022-12-07T08:58:42;2.40;99.90
11087;DHT22;5597;47.588;9.642;2022-12-07T09:01:08;2.40;99.90
11087;DHT22;5597;47.588;9.642;2022-12-07T09:03:34;2.40;99.90
11087;DHT22;5597;47.588;9.642;2022-12-07T09:06:00;2.30;99.90
11087;DHT22;5597;47.588;9.642;2022-12-07T09:08:33;2.30;99.90
11087;DHT22;5597;47.588;9.642;2022-12-07T09:10:59;2.30;99.90
11087;DHT22;5597;47.588;9.642;2022-12-07T09:13:25;2.30;99.90
11087;DHT22;5597;47.588;9.642;2022-12-07T09:15:51;2.30;99.90
11087;DHT22;5597;47.588;9.642;2022-12-07T09:18:16;2.30;99.90
11087;DHT22;5597;47.588;9.642;2022-12-07T09:20:42;2.30;99.90
11087;DHT22;5597;47.588;9.642;2022-12-07T09:23:08;2.30;99.90
11087;DHT22;5597;47.588;9.642;2022-12-07T09:25:34;2.30;99.90
11087;DHT22;5597;47.588;9.642;2022-12-07T09:28:00;2.30;99.90
11087;DHT22;5597;47.588;9.642;2022-12-07T09:30:27;2.30;99.90
11087;DHT22;5597;47.588;9.642;2022-12-07T09:32:54;2.30;99.90
11087;DHT22;5597;47.588;9.642;2022-12-07T09:35:20;2.30;99.90
11087;DHT22;5597;47.588;9.642;2022-12-07T09:37:45;2.30;99.90
11087;DHT22;5597;47.588;9.642;2022-12-07T09:40:12;2.30;99.90
11087;DHT22;5597;47.588;9.642;2022-12-07T09:42:41;2.30;99.90
11087;DHT22;5597;47.588;9.642;2022-12-07T09:47:47;2.30;99.90
11087;DHT22;5597;47.588;9.642;2022-12-07T09:50:27;2.30;99.90
11087;DHT22;5597;47.588;9.642;2022-12-07T09:52:55;2.30;99.90
11087;DHT22;5597;47.588;9.642;2022-12-07T09:55:29;2.30;99.90
11087;DHT22;5597;47.588;9.642;2022-12-07T09:57:55;2.30;99.90
11087;DHT22;5597;47.588;9.642;2022-12-07T10:00:22;2.30;99.90
11087;DHT22;5597;47.588;9.642;2022-12-07T10:03:02;2.30;99.90
11087;DHT22;5597;47.588;9.642;2022-12-07T10:05:33;2.30;99.90
11087;DHT22;5597;47.588;9.642;2022-12-07T10:08:00;2.30;99.90
11087;DHT22;5597;47.588;9.642;2022-12-07T10:10:31;2.30;99.90
11087;DHT22;5597;47.588;9.642;2022-12-07T10:12:58;2.30;99.90
11087;DHT22;5597;47.588;9.642;2022-12-07T10:15:48;2.40;99.90
11087;DHT22;5597;47.588;9.642;2022-12-07T10:18:41;2.40;99.90
11087;DHT22;5597;47.588;9.642;2022-12-07T10:21:24;2.40;99.90
11087;DHT22;5597;47.588;9.642;2022-12-07T10:24:04;2.40;99.90
11087;DHT22;5597;47.588;9.642;2022-12-07T10:26:35;2.40;99.90
11087;DHT22;5597;47.588;9.642;2022-12-07T10:29:14;2.40;99.90
11087;DHT22;5597;47.588;9.642;2022-12-07T10:31:41;2.30;99.90
11087;DHT22;5597;47.588;9.642;2022-12-07T10:34:24;2.30;99.90
11087;DHT22;5597;47.588;9.642;2022-12-07T10:36:51;2.40;99.90
11087;DHT22;5597;47.588;9.642;2022-12-07T10:39:23;2.40;99.90
11087;DHT22;5597;47.588;9.642;2022-12-07T10:42:00;2.30;99.90
11087;DHT22;5597;47.588;9.642;2022-12-07T10:44:28;2.30;99.90
11087;DHT22;5597;47.588;9.642;2022-12-07T11:15:04;2.30;99.90
11087;DHT22;5597;47.588;9.642;2022-12-07T11:20:45;2.40;99.90
11087;DHT22;5597;47.588;9.642;2022-12-07T11:23:49;2.50;99.90
11087;DHT22;5597;47.588;9.642;2022-12-07T11:29:18;2.60;99.90
11087;DHT22;5597;47.588;9.642;2022-12-07T11:37:23;2.90;99.90
11087;DHT22;5597;47.588;9.642;2022-12-07T11:39:54;2.90;99.90
11087;DHT22;5597;47.588;9.642;2022-12-07T11:42:26;3.00;99.90
11087;DHT22;5597;47.588;9.642;2022-12-07T11:44:56;3.10;99.90
11087;DHT22;5597;47.588;9.642;2022-12-07T11:56:10;3.40;99.90
11087;DHT22;5597;47.588;9.642;2022-12-07T12:03:45;3.60;99.90
11087;DHT22;5597;47.588;9.642;2022-12-07T12:06:12;3.60;99.90
11087;DHT22;5597;47.588;9.642;2022-12-07T12:08:48;3.70;99.90
11087;DHT22;5597;47.588;9.642;2022-12-07T12:12:25;3.70;99.90
11087;DHT22;5597;47.588;9.642;2022-12-07T12:14:52;3.80;99.90
11087;DHT22;5597;47.588;9.642;2022-12-07T12:20:23;3.90;99.90
11087;DHT22;5597;47.588;9.642;2022-12-07T12:23:04;4.00;99.90
11087;DHT22;5597;47.588;9.642;2022-12-07T12:25:45;4.20;99.90
11087;DHT22;5597;47.588;9.642;2022-12-07T12:28:38;4.20;99.90
11087;DHT22;5597;47.588;9.642;2022-12-07T12:31:15;4.30;99.90
11087;DHT22;5597;47.588;9.642;2022-12-07T12:33:53;4.30;99.90
11087;DHT22;5597;47.588;9.642;2022-12-07T12:38:51;4.40;99.90
11087;DHT22;5597;47.588;9.642;2022-12-07T12:44:02;4.50;99.90
11087;DHT22;5597;47.588;9.642;2022-12-07T12:49:30;4.50;99.90
11087;DHT22;5597;47.588;9.642;2022-12-07T12:54:32;4.50;99.90
11087;DHT22;5597;47.588;9.642;2022-12-07T13:02:29;4.50;99.90
11087;DHT22;5597;47.588;9.642;2022-12-07T13:05:20;4.50;99.90
11087;DHT22;5597;47.588;9.642;2022-12-07T13:10:22;4.70;99.90
11087;DHT22;5597;47.588;9.642;2022-12-07T13:24:00;4.70;99.90
11087;DHT22;5597;47.588;9.642;2022-12-07T13:29:17;4.70;99.90
11087;DHT22;5597;47.588;9.642;2022-12-07T13:34:31;4.70;99.90
11087;DHT22;5597;47.588;9.642;2022-12-07T13:36:58;4.70;99.90
11087;DHT22;5597;47.588;9.642;2022-12-07T13:39:26;4.70;99.90
11087;DHT22;5597;47.588;9.642;2022-12-07T13:41:58;4.70;99.90
11087;DHT22;5597;47.588;9.642;2022-12-07T13:44:27;4.70;99.90
11087;DHT22;5597;47.588;9.642;2022-12-07T13:49:46;4.60;99.90
11087;DHT22;5597;47.588;9.642;2022-12-07T13:52:18;4.60;99.90
11087;DHT22;5597;47.588;9.642;2022-12-07T13:55:20;4.60;99.90
11087;DHT22;5597;47.588;9.642;2022-12-07T13:57:49;4.60;99.90
11087;DHT22;5597;47.588;9.642;2022-12-07T14:00:29;4.60;99.90
11087;DHT22;5597;47.588;9.642;2022-12-07T14:05:39;4.50;99.90
11087;DHT22;5597;47.588;9.642;2022-12-07T14:10:37;4.50;99.90
11087;DHT22;5597;47.588;9.642;2022-12-07T14:15:51;4.50;99.90
11087;DHT22;5597;47.588;9.642;2022-12-07T14:23:38;4.60;99.90
11087;DHT22;5597;47.588;9.642;2022-12-07T14:26:29;4.60;99.90
11087;DHT22;5597;47.588;9.642;2022-12-07T14:31:54;4.40;99.90
11087;DHT22;5597;47.588;9.642;2022-12-07T14:34:21;4.40;99.90
11087;DHT22;5597;47.588;9.642;2022-12-07T14:36:47;4.30;99.90
11087;DHT22;5597;47.588;9.642;2022-12-07T14:39:12;4.30;99.90
11087;DHT22;5597;47.588;9.642;2022-12-07T14:41:38;4.20;99.90
11087;DHT22;5597;47.588;9.642;2022-12-07T14:44:16;4.20;99.90
11087;DHT22;5597;47.588;9.642;2022-12-07T14:46:42;4.20;99.90
11087;DHT22;5597;47.588;9.642;2022-12-07T14:49:08;4.20;99.90
11087;DHT22;5597;47.588;9.642;2022-12-07T14:51:36;4.20;99.90
11087;DHT22;5597;47.588;9.642;2022-12-07T14:54:04;4.20;99.90
11087;DHT22;5597;47.588;9.642;2022-12-07T14:56:30;4.20;99.90
11087;DHT22;5597;47.588;9.642;2022-12-07T14:58:56;4.10;99.90
11087;DHT22;5597;47.588;9.642;2022-12-07T15:01:22;4.10;99.90
11087;DHT22;5597;47.588;9.642;2022-12-07T15:03:47;4.10;99.90
11087;DHT22;5597;47.588;9.642;2022-12-07T15:06:15;4.00;99.90
11087;DHT22;5597;47.588;9.642;2022-12-07T15:08:42;4.00;99.90
11087;DHT22;5597;47.588;9.642;2022-12-07T15:11:13;4.00;99.90
11087;DHT22;5597;47.588;9.642;2022-12-07T15:13:39;4.00;99.90
11087;DHT22;5597;47.588;9.642;2022-12-07T15:16:23;3.90;99.90
11087;DHT22;5597;47.588;9.642;2022-12-07T15:18:49;4.00;99.90
11087;DHT22;5597;47.588;9.642;2022-12-07T15:21:15;3.90;99.90
11087;DHT22;5597;47.588;9.642;2022-12-07T15:23:41;3.90;99.90
11087;DHT22;5597;47.588;9.642;2022-12-07T15:26:07;3.90;99.90
11087;DHT22;5597;47.588;9.642;2022-12-07T15:28:33;3.80;99.90
11087;DHT22;5597;47.588;9.642;2022-12-07T15:30:59;3.70;99.90
11087;DHT22;5597;47.588;9.642;2022-12-07T15:33:24;3.70;99.90
11087;DHT22;5597;47.588;9.642;2022-12-07T15:35:50;3.60;99.90
11087;DHT22;5597;47.588;9.642;2022-12-07T15:38:16;3.60;99.90
11087;DHT22;5597;47.588;9.642;2022-12-07T15:40:41;3.50;99.90
11087;DHT22;5597;47.588;9.642;2022-12-07T15:43:10;3.50;99.90
11087;DHT22;5597;47.588;9.642;2022-12-07T15:45:56;3.50;99.90
11087;DHT22;5597;47.588;9.642;2022-12-07T15:48:22;3.50;99.90
11087;DHT22;5597;47.588;9.642;2022-12-07T15:50:47;3.50;99.90
11087;DHT22;5597;47.588;9.642;2022-12-07T15:53:13;3.40;99.90
11087;DHT22;5597;47.588;9.642;2022-12-07T15:55:40;3.40;99.90
11087;DHT22;5597;47.588;9.642;2022-12-07T15:58:06;3.40;99.90
11087;DHT22;5597;47.588;9.642;2022-12-07T16:00:32;3.30;99.90
11087;DHT22;5597;47.588;9.642;2022-12-07T16:02:58;3.30;99.90
11087;DHT22;5597;47.588;9.642;2022-12-07T16:05:23;3.20;99.90
11087;DHT22;5597;47.588;9.642;2022-12-07T16:07:49;3.20;99.90
11087;DHT22;5597;47.588;9.642;2022-12-07T16:10:16;3.20;99.90
11087;DHT22;5597;47.588;9.642;2022-12-07T16:12:42;3.20;99.90
11087;DHT22;5597;47.588;9.642;2022-12-07T16:15:08;3.10;99.90
11087;DHT22;5597;47.588;9.642;2022-12-07T16:17:34;3.10;99.90
11087;DHT22;5597;47.588;9.642;2022-12-07T16:19:59;3.10;99.90
11087;DHT22;5597;47.588;9.642;2022-12-07T16:22:25;3.10;99.90
11087;DHT22;5597;47.588;9.642;2022-12-07T16:24:50;3.10;99.90
11087;DHT22;5597;47.588;9.642;2022-12-07T16:27:16;3.10;99.90
11087;DHT22;5597;47.588;9.642;2022-12-07T16:29:42;3.10;99.90
11087;DHT22;5597;47.588;9.642;2022-12-07T16:32:07;3.10;99.90
11087;DHT22;5597;47.588;9.642;2022-12-07T16:34:33;3.00;99.90
11087;DHT22;5597;47.588;9.642;2022-12-07T16:36:59;3.00;99.90
11087;DHT22;5597;47.588;9.642;2022-12-07T16:39:24;3.00;99.90
11087;DHT22;5597;47.588;9.642;2022-12-07T16:41:50;3.00;99.90
11087;DHT22;5597;47.588;9.642;2022-12-07T16:44:16;2.90;99.90
11087;DHT22;5597;47.588;9.642;2022-12-07T16:46:42;3.00;99.90
11087;DHT22;5597;47.588;9.642;2022-12-07T16:49:12;2.90;99.90
11087;DHT22;5597;47.588;9.642;2022-12-07T16:51:38;2.90;99.90
11087;DHT22;5597;47.588;9.642;2022-12-07T16:54:04;2.90;99.90
11087;DHT22;5597;47.588;9.642;2022-12-07T16:56:30;2.90;99.90
11087;DHT22;5597;47.588;9.642;2022-12-07T16:58:58;2.90;99.90
11087;DHT22;5597;47.588;9.642;2022-12-07T17:01:24;2.90;99.90
11087;DHT22;5597;47.588;9.642;2022-12-07T17:03:50;2.90;99.90
11087;DHT22;5597;47.588;9.642;2022-12-07T17:06:24;2.90;99.90
11087;DHT22;5597;47.588;9.642;2022-12-07T17:08:51;2.90;99.90
11087;DHT22;5597;47.588;9.642;2022-12-07T17:11:20;2.80;99.90
11087;DHT22;5597;47.588;9.642;2022-12-07T17:13:46;2.90;99.90
11087;DHT22;5597;47.588;9.642;2022-12-07T17:16:30;2.90;99.90
11087;DHT22;5597;47.588;9.642;2022-12-07T17:18:56;2.90;99.90
11087;DHT22;5597;47.588;9.642;2022-12-07T17:21:22;2.90;99.90
11087;DHT22;5597;47.588;9.642;2022-12-07T17:23:48;2.90;99.90
11087;DHT22;5597;47.588;9.642;2022-12-07T17:26:17;2.90;99.90
11087;DHT22;5597;47.588;9.642;2022-12-07T17:28:44;2.90;99.90
11087;DHT22;5597;47.588;9.642;2022-12-07T17:31:11;2.90;99.90
11087;DHT22;5597;47.588;9.642;2022-12-07T17:33:38;2.90;99.90
11087;DHT22;5597;47.588;9.642;2022-12-07T17:36:21;2.90;99.90
11087;DHT22;5597;47.588;9.642;2022-12-07T17:38:47;2.90;99.90
11087;DHT22;5597;47.588;9.642;2022-12-07T17:41:29;2.90;99.90
11087;DHT22;5597;47.588;9.642;2022-12-07T17:44:17;2.90;99.90
11087;DHT22;5597;47.588;9.642;2022-12-07T17:46:44;2.90;99.90
11087;DHT22;5597;47.588;9.642;2022-12-07T17:49:12;2.90;99.90
11087;DHT22;5597;47.588;9.642;2022-12-07T17:51:38;2.90;99.90
11087;DHT22;5597;47.588;9.642;2022-12-07T17:54:22;2.90;99.90
11087;DHT22;5597;47.588;9.642;2022-12-07T17:56:48;2.90;99.90
11087;DHT22;5597;47.588;9.642;2022-12-07T17:59:14;2.90;99.90
11087;DHT22;5597;47.588;9.642;2022-12-07T18:01:40;2.90;99.90
11087;DHT22;5597;47.588;9.642;2022-12-07T18:04:06;2.90;99.90
11087;DHT22;5597;47.588;9.642;2022-12-07T18:06:32;2.90;99.90
11087;DHT22;5597;47.588;9.642;2022-12-07T18:08:58;2.90;99.90
11087;DHT22;5597;47.588;9.642;2022-12-07T18:11:24;2.90;99.90
11087;DHT22;5597;47.588;9.642;2022-12-07T18:13:50;2.80;99.90
11087;DHT22;5597;47.588;9.642;2022-12-07T18:16:21;2.80;99.90
11087;DHT22;5597;47.588;9.642;2022-12-07T18:18:48;2.80;99.90
11087;DHT22;5597;47.588;9.642;2022-12-07T18:21:16;2.80;99.90
11087;DHT22;5597;47.588;9.642;2022-12-07T18:23:43;2.80;99.90
11087;DHT22;5597;47.588;9.642;2022-12-07T18:26:10;2.80;99.90
11087;DHT22;5597;47.588;9.642;2022-12-07T18:28:35;2.80;99.90
11087;DHT22;5597;47.588;9.642;2022-12-07T18:31:01;2.80;99.90
11087;DHT22;5597;47.588;9.642;2022-12-07T18:33:27;2.80;99.90
11087;DHT22;5597;47.588;9.642;2022-12-07T18:35:53;2.80;99.90
11087;DHT22;5597;47.588;9.642;2022-12-07T18:38:18;2.80;99.90
11087;DHT22;5597;47.588;9.642;2022-12-07T18:40:44;2.80;99.90
11087;DHT22;5597;47.588;9.642;2022-12-07T18:43:11;2.80;99.90
11087;DHT22;5597;47.588;9.642;2022-12-07T18:45:39;2.80;99.90
11087;DHT22;5597;47.588;9.642;2022-12-07T18:48:05;2.80;99.90
11087;DHT22;5597;47.588;9.642;2022-12-07T18:50:31;2.80;99.90